Time;durP1;ratioP1;P1;durP2;ratioP2;P2;SDS_P1;SDS_P2;PMS_P1;PMS_P2;Temp;Humidity;BMP_temperature;BMP_pressure;BME280_temperature;BME280_humidity;BME280_pressure;Samples;Min_cycle;Max_cycle;Signal;HPM_P1;HPM_P2
2021/06/21 00:03:13;;;;;;;16.07;5.17;;;;;;;22.61;68.48;97034.50;8319034;28;20397;-64
2021/06/21 00:07:15;;;;;;;14.57;4.90;;;;;;;22.75;67.89;97044.38;8319672;28;20552;-64
2021/06/21 00:11:20;;;;;;;19.00;4.73;;;;;;;22.86;67.10;97052.94;8319532;28;20240;-64
2021/06/21 00:15:25;;;;;;;14.67;5.13;;;;;;;22.64;67.44;97057.91;8319752;28;20204;-64
2021/06/21 00:19:28;;;;;;;20.03;5.43;;;;;;;22.79;67.03;97050.97;8319861;28;20207;-64
2021/06/21 00:23:31;;;;;;;14.77;5.10;;;;;;;22.79;67.59;97052.75;8319383;28;20394;-64
2021/06/21 00:27:37;;;;;;;16.50;5.03;;;;;;;22.52;67.54;97036.28;8319256;28;20232;-64
2021/06/21 00:31:39;;;;;;;16.47;5.33;;;;;;;22.30;68.07;97021.97;8319297;28;20208;-64
2021/06/21 00:35:43;;;;;;;15.23;5.27;;;;;;;22.64;67.07;97026.25;8318850;28;20424;-64
2021/06/21 00:39:46;;;;;;;14.63;5.20;;;;;;;22.73;66.92;97038.44;8319065;28;20212;-63
2021/06/21 00:43:50;;;;;;;13.20;4.57;;;;;;;22.68;66.79;97032.03;8318967;28;20213;-64
2021/06/21 00:47:55;;;;;;;15.90;4.97;;;;;;;22.66;67.01;97026.91;8318585;28;20413;-64
2021/06/21 00:51:58;;;;;;;13.57;4.90;;;;;;;22.73;67.12;97014.69;8318492;28;20399;-64
2021/06/21 00:56:01;;;;;;;17.00;5.67;;;;;;;22.67;67.27;97009.25;8318486;28;20534;-64
2021/06/21 01:00:08;;;;;;;15.83;5.40;;;;;;;22.57;67.05;97004.16;8318346;28;20380;-64
2021/06/21 01:04:11;;;;;;;17.70;4.90;;;;;;;22.58;67.07;97005.78;8318123;28;20204;-64
2021/06/21 01:08:13;;;;;;;17.50;5.33;;;;;;;22.56;67.38;97015.69;8317776;28;20414;-64
2021/06/21 01:12:30;;;;;;;13.70;4.90;;;;;;;22.61;67.01;97026.56;8317864;28;20233;-64
2021/06/21 01:16:39;;;;;;;11.43;4.37;;;;;;;22.57;66.57;97026.06;8317961;28;20295;-64
2021/06/21 01:21:04;;;;;;;16.30;4.77;;;;;;;22.58;66.54;97038.28;8317789;28;20215;-64
2021/06/21 01:25:24;;;;;;;14.53;5.43;;;;;;;22.51;66.69;97032.03;8317721;28;20204;-64
2021/06/21 01:29:45;;;;;;;13.73;5.27;;;;;;;22.55;66.83;97051.81;8317558;28;20238;-64
2021/06/21 01:33:50;;;;;;;15.33;5.70;;;;;;;22.58;66.96;97042.72;8317396;28;20204;-64
2021/06/21 01:37:55;;;;;;;18.77;6.27;;;;;;;22.54;66.95;97049.31;8317665;28;20204;-64
2021/06/21 01:42:02;;;;;;;15.67;5.90;;;;;;;22.31;67.67;97055.25;8317270;28;20239;-64
2021/06/21 01:46:07;;;;;;;15.50;5.53;;;;;;;22.42;67.59;97060.22;8316590;28;20506;-64
2021/06/21 01:50:15;;;;;;;15.73;5.70;;;;;;;22.45;67.35;97067.81;8317158;28;20238;-64
2021/06/21 01:54:18;;;;;;;14.60;5.43;;;;;;;22.48;66.96;97076.38;8316851;28;20223;-64
2021/06/21 01:58:21;;;;;;;19.57;6.30;;;;;;;22.42;67.11;97070.75;8316504;28;20530;-64
2021/06/21 02:02:25;;;;;;;15.47;6.03;;;;;;;22.45;66.48;97072.25;8316376;28;20204;-64
2021/06/21 02:06:32;;;;;;;15.13;6.03;;;;;;;22.43;66.65;97080.34;8316551;28;20221;-64
2021/06/21 02:10:35;;;;;;;16.90;5.97;;;;;;;22.39;66.19;97086.09;8316386;28;20326;-64
2021/06/21 02:14:38;;;;;;;16.37;5.27;;;;;;;22.35;66.83;97093.53;8316076;28;20210;-64
2021/06/21 02:18:42;;;;;;;14.40;5.60;;;;;;;22.39;66.59;97088.72;8316083;28;20211;-64
2021/06/21 02:22:47;;;;;;;20.63;6.03;;;;;;;22.34;66.19;97085.78;8315936;28;20203;-64
2021/06/21 02:26:50;;;;;;;15.83;5.83;;;;;;;22.31;66.37;97084.25;8314642;28;20201;-64
2021/06/21 02:30:55;;;;;;;22.37;6.30;;;;;;;22.35;66.02;97095.31;8305775;28;20257;-64
2021/06/21 02:34:58;;;;;;;17.97;6.13;;;;;;;22.22;66.36;97098.44;8297451;28;20208;-64
2021/06/21 02:39:02;;;;;;;19.43;6.00;;;;;;;22.23;66.13;97108.78;8303570;28;20511;-64
2021/06/21 02:43:05;;;;;;;21.10;5.83;;;;;;;22.20;66.34;97121.47;8283440;28;20227;-64
2021/06/21 02:47:08;;;;;;;18.47;5.53;;;;;;;22.24;66.12;97120.19;8292370;28;20204;-63
2021/06/21 02:51:14;;;;;;;13.73;5.53;;;;;;;22.16;65.60;97123.63;8315774;28;20541;-64
2021/06/21 02:55:22;;;;;;;17.20;6.00;;;;;;;21.98;66.32;97123.72;8315807;28;20205;-64
2021/06/21 02:59:26;;;;;;;15.27;5.57;;;;;;;22.01;66.09;97115.50;8320820;28;20239;-64
2021/06/21 03:03:32;;;;;;;15.03;5.50;;;;;;;22.08;65.86;97122.78;8318864;28;20197;-64
2021/06/21 03:07:36;;;;;;;18.53;6.20;;;;;;;22.10;65.86;97128.69;8289841;28;20492;-64
2021/06/21 03:11:43;;;;;;;15.40;5.50;;;;;;;22.03;65.52;97131.19;8289133;28;20249;-65
2021/06/21 03:15:46;;;;;;;16.67;5.93;;;;;;;22.00;65.60;97134.13;8289730;28;20499;-64
2021/06/21 03:19:49;;;;;;;16.30;5.20;;;;;;;22.00;65.51;97136.75;8289305;28;20226;-64
2021/06/21 03:23:53;;;;;;;19.87;5.70;;;;;;;22.04;65.57;97130.16;8289955;28;20204;-64
2021/06/21 03:27:58;;;;;;;16.40;5.43;;;;;;;22.05;64.95;97142.38;8289892;28;20204;-64
2021/06/21 03:32:12;;;;;;;18.70;5.40;;;;;;;22.01;65.20;97146.31;8311148;28;20234;-64
2021/06/21 03:36:15;;;;;;;18.30;6.20;;;;;;;21.96;64.97;97138.06;8321641;28;20410;-64
2021/06/21 03:40:18;;;;;;;19.30;5.63;;;;;;;21.96;64.81;97140.69;8321015;28;20312;-64
2021/06/21 03:44:22;;;;;;;17.20;5.53;;;;;;;21.85;65.28;97149.72;8320923;28;20219;-63
2021/06/21 03:48:26;;;;;;;18.73;5.37;;;;;;;21.97;64.35;97145.81;8320653;28;20200;-63
2021/06/21 03:52:29;;;;;;;17.70;5.10;;;;;;;22.00;64.78;97142.84;8320884;28;20201;-64
2021/06/21 03:56:32;;;;;;;15.97;5.50;;;;;;;21.94;65.51;97143.50;8320738;28;20398;-64
2021/06/21 04:00:37;;;;;;;20.00;5.37;;;;;;;21.97;64.77;97144.97;8287893;28;20225;-64
2021/06/21 04:04:44;;;;;;;21.70;6.20;;;;;;;21.95;64.75;97155.69;8288002;28;20611;-64
2021/06/21 04:08:46;;;;;;;20.93;5.33;;;;;;;21.96;65.19;97169.69;8286705;28;20233;-64
2021/06/21 04:12:51;;;;;;;22.57;5.40;;;;;;;21.93;65.17;97178.72;8287904;28;20201;-64
2021/06/21 04:16:55;;;;;;;15.23;5.97;;;;;;;22.14;64.75;97195.94;8287426;28;20204;-64
2021/06/21 04:20:58;;;;;;;16.40;5.97;;;;;;;22.09;64.64;97193.78;8287401;28;20206;-64
2021/06/21 04:25:01;;;;;;;15.27;4.93;;;;;;;22.17;64.53;97193.00;8287072;28;20205;-64
2021/06/21 04:29:05;;;;;;;19.23;6.23;;;;;;;22.10;64.54;97184.06;8286981;28;20233;-64
2021/06/21 04:33:24;;;;;;;15.03;4.37;;;;;;;22.44;65.85;97197.22;8286781;28;20205;-64
2021/06/21 04:37:27;;;;;;;12.57;4.50;;;;;;;22.86;64.52;97195.47;8286818;28;20213;-64
2021/06/21 04:41:29;;;;;;;16.23;4.90;;;;;;;23.00;62.45;97203.56;8286809;28;20208;-64
2021/06/21 04:45:32;;;;;;;16.73;4.50;;;;;;;22.72;63.70;97202.22;8286513;28;20224;-63
2021/06/21 04:49:37;;;;;;;15.07;5.40;;;;;;;22.70;62.70;97207.66;8286346;28;20241;-64
2021/06/21 04:53:39;;;;;;;16.17;4.90;;;;;;;22.58;63.01;97207.16;8286072;28;20202;-64
2021/06/21 04:57:43;;;;;;;17.20;4.47;;;;;;;22.67;62.80;97204.53;8286042;28;20208;-64
2021/06/21 05:01:46;;;;;;;14.47;4.87;;;;;;;22.21;63.76;97196.97;8288536;28;20232;-64
2021/06/21 05:05:50;;;;;;;19.97;5.60;;;;;;;22.08;64.10;97199.22;8290600;28;20532;-64
2021/06/21 05:09:53;;;;;;;17.03;4.93;;;;;;;22.14;63.80;97201.22;8304428;28;20260;-64
2021/06/21 05:13:55;;;;;;;13.97;4.97;;;;;;;22.27;63.32;97198.97;8318058;28;20223;-64
2021/06/21 05:17:58;;;;;;;18.20;4.93;;;;;;;22.60;62.59;97205.19;8318033;28;20204;-63
2021/06/21 05:22:03;;;;;;;15.53;4.60;;;;;;;22.92;61.30;97213.28;8316869;28;20208;-64
2021/06/21 05:26:06;;;;;;;19.63;5.30;;;;;;;22.79;62.18;97197.91;8317142;28;20201;-64
2021/06/21 05:30:11;;;;;;;16.37;4.50;;;;;;;23.05;61.40;97197.00;8316667;28;20227;-64
2021/06/21 05:34:13;;;;;;;18.30;4.93;;;;;;;22.84;61.31;97193.00;8313185;28;20193;-65
2021/06/21 05:38:17;;;;;;;15.30;4.63;;;;;;;22.90;61.59;97194.16;8284827;28;20383;-65
2021/06/21 05:42:21;;;;;;;14.43;4.53;;;;;;;22.84;62.31;97207.00;8284508;28;20209;-66
2021/06/21 05:46:24;;;;;;;17.43;5.20;;;;;;;22.88;62.22;97210.13;8284430;28;20205;-65
2021/06/21 05:50:27;;;;;;;17.77;5.50;;;;;;;22.60;62.83;97221.00;8284263;28;20312;-65
2021/06/21 05:54:31;;;;;;;19.13;5.23;;;;;;;22.15;64.87;97211.59;8284045;28;20209;-66
2021/06/21 05:58:34;;;;;;;14.43;4.90;;;;;;;22.23;65.27;97214.25;8284370;28;20209;-65
2021/06/21 06:02:37;;;;;;;22.40;6.10;;;;;;;22.51;64.29;97229.06;8284169;28;20463;-65
2021/06/21 06:06:40;;;;;;;17.13;5.13;;;;;;;22.22;64.37;97217.91;8286835;28;20229;-63
2021/06/21 06:10:44;;;;;;;18.67;5.57;;;;;;;22.15;65.34;97213.44;8316319;28;20243;-62
2021/06/21 06:14:47;;;;;;;17.57;5.20;;;;;;;22.27;64.27;97211.34;8315964;28;20197;-63
2021/06/21 06:18:49;;;;;;;16.17;5.17;;;;;;;22.61;63.16;97221.81;8315186;28;20208;-63
2021/06/21 06:22:52;;;;;;;12.00;4.53;;;;;;;22.90;62.73;97233.75;8316176;28;20520;-63
2021/06/21 06:26:57;;;;;;;16.13;4.50;;;;;;;22.63;62.08;97227.75;8316118;28;20208;-63
2021/06/21 06:30:59;;;;;;;17.20;4.80;;;;;;;22.83;62.87;97221.19;8315822;28;20225;-63
2021/06/21 06:35:02;;;;;;;18.87;4.57;;;;;;;23.12;62.25;97240.22;8315814;28;20200;-63
2021/06/21 06:39:06;;;;;;;15.07;4.50;;;;;;;23.31;60.75;97245.19;8316199;28;20223;-63
2021/06/21 06:43:10;;;;;;;20.53;4.50;;;;;;;23.03;61.18;97248.13;8315561;28;20221;-63
2021/06/21 06:47:13;;;;;;;12.20;3.90;;;;;;;23.36;59.65;97247.31;8315576;28;20201;-63
2021/06/21 06:51:16;;;;;;;15.50;3.73;;;;;;;23.57;60.10;97236.22;8315449;28;20238;-63
2021/06/21 06:59:41;;;;;;;13.60;3.40;;;;;;;23.87;57.30;97247.09;8315470;28;20212;-63
2021/06/21 07:03:44;;;;;;;15.70;3.27;;;;;;;23.70;57.80;97243.63;8305296;28;20500;-64
2021/06/21 07:07:47;;;;;;;16.27;3.40;;;;;;;23.84;57.77;97250.06;8282948;28;20229;-65
2021/06/21 07:11:51;;;;;;;11.23;3.27;;;;;;;23.86;55.42;97258.69;8282899;28;20407;-64
2021/06/21 07:15:55;;;;;;;16.80;3.67;;;;;;;24.50;55.41;97255.94;8282834;28;20213;-64
2021/06/21 07:19:58;;;;;;;12.57;2.73;;;;;;;24.75;53.78;97262.78;8282803;28;20209;-64
2021/06/21 07:24:00;;;;;;;15.90;3.47;;;;;;;24.56;54.80;97263.22;8307172;28;20219;-64
2021/06/21 07:28:03;;;;;;;10.50;3.00;;;;;;;24.46;55.15;97262.59;8314686;28;20193;-63
2021/06/21 07:32:09;;;;;;;12.73;3.00;;;;;;;24.73;54.37;97264.78;8314334;28;20531;-63
2021/06/21 07:36:12;;;;;;;11.07;2.93;;;;;;;24.91;53.70;97248.63;8314825;28;20197;-63
2021/06/21 07:40:15;;;;;;;10.87;3.33;;;;;;;25.25;53.31;97250.06;8313813;28;20224;-65
2021/06/21 07:44:17;;;;;;;16.90;3.73;;;;;;;25.62;52.50;97266.94;8316072;28;20204;-63
2021/06/21 07:48:22;;;;;;;17.00;3.87;;;;;;;25.47;51.52;97264.25;8320514;28;20202;-63
2021/06/21 07:52:24;;;;;;;10.40;3.10;;;;;;;25.88;51.84;97258.56;8320567;28;20229;-63
2021/06/21 07:56:27;;;;;;;16.20;3.37;;;;;;;25.73;51.40;97255.06;8320472;28;20203;-63
2021/06/21 08:00:32;;;;;;;15.07;3.77;;;;;;;25.50;51.62;97257.78;8320342;28;20525;-63
2021/06/21 08:04:36;;;;;;;11.73;3.03;;;;;;;26.10;50.86;97245.41;8320069;28;20213;-63
2021/06/21 08:08:40;;;;;;;13.57;2.83;;;;;;;26.60;49.76;97248.28;8318430;28;20233;-65
2021/06/21 08:12:43;;;;;;;14.43;3.50;;;;;;;26.21;49.83;97246.78;8319302;28;20231;-63
2021/06/21 08:16:46;;;;;;;14.30;2.93;;;;;;;26.14;50.81;97255.50;8318735;28;20205;-64
2021/06/21 08:20:50;;;;;;;12.23;3.03;;;;;;;26.40;49.21;97251.50;8319241;28;20367;-64
2021/06/21 08:24:53;;;;;;;15.13;3.50;;;;;;;26.99;48.70;97250.53;8318973;28;20203;-63
2021/06/21 08:28:56;;;;;;;11.93;3.00;;;;;;;27.33;46.61;97251.72;8319095;28;20208;-63
2021/06/21 08:32:59;;;;;;;18.87;3.10;;;;;;;27.35;45.94;97232.91;8318477;28;20283;-63
2021/06/21 08:37:03;;;;;;;13.40;3.57;;;;;;;27.13;46.30;97232.06;8318840;28;20203;-63
2021/06/21 08:41:07;;;;;;;12.37;2.80;;;;;;;27.21;45.67;97248.72;8318548;28;20207;-64
2021/06/21 08:45:11;;;;;;;15.70;3.33;;;;;;;27.40;46.68;97246.47;8318734;28;20292;-64
2021/06/21 08:49:14;;;;;;;9.50;2.60;;;;;;;27.93;44.86;97251.34;8318723;28;20208;-63
2021/06/21 08:53:18;;;;;;;10.57;2.80;;;;;;;27.98;43.69;97254.22;8318431;28;20225;-64
2021/06/21 08:57:21;;;;;;;13.47;3.20;;;;;;;28.22;44.28;97250.28;8317977;28;20209;-63
2021/06/21 09:01:24;;;;;;;11.90;2.80;;;;;;;28.26;44.33;97260.31;8318167;28;20207;-64
2021/06/21 09:05:27;;;;;;;9.67;2.77;;;;;;;28.24;43.41;97257.03;8318271;28;20227;-64
2021/06/21 09:09:35;;;;;;;9.87;2.67;;;;;;;28.70;42.37;97263.59;8318104;28;20343;-63
2021/06/21 09:13:38;;;;;;;10.57;2.43;;;;;;;28.90;41.60;97247.66;8317872;28;20237;-64
2021/06/21 09:17:41;;;;;;;12.03;2.70;;;;;;;28.77;41.54;97244.94;8317990;28;20226;-64
2021/06/21 09:21:44;;;;;;;12.07;2.97;;;;;;;29.11;42.25;97246.69;8317675;28;20212;-64
2021/06/21 09:25:48;;;;;;;12.30;2.90;;;;;;;28.68;40.57;97233.69;8317737;28;20360;-64
2021/06/21 09:29:52;;;;;;;10.93;2.60;;;;;;;29.40;41.63;97236.66;8317499;28;20204;-64
2021/06/21 09:34:14;;;;;;;8.67;2.10;;;;;;;29.57;39.74;97229.06;8317308;28;20343;-64
2021/06/21 09:38:17;;;;;;;11.43;2.20;;;;;;;29.31;38.72;97235.22;8317464;28;20212;-63
2021/06/21 09:42:23;;;;;;;10.27;2.10;;;;;;;29.47;39.59;97242.78;8316718;28;20206;-63
2021/06/21 09:46:26;;;;;;;11.33;2.50;;;;;;;29.45;38.38;97252.84;8316966;28;20204;-63
2021/06/21 09:50:31;;;;;;;8.03;1.77;;;;;;;29.55;38.76;97253.28;8316772;28;20496;-63
2021/06/21 09:54:34;;;;;;;9.03;2.20;;;;;;;29.68;38.74;97252.41;8316857;28;20203;-63
2021/06/21 09:58:39;;;;;;;6.37;2.03;;;;;;;29.78;37.91;97247.53;8317059;28;20496;-63
2021/06/21 10:02:42;;;;;;;5.73;2.00;;;;;;;30.13;37.77;97233.06;8317726;28;20492;-63
2021/06/21 10:06:45;;;;;;;8.13;2.27;;;;;;;29.51;37.93;97245.88;8317064;28;20230;-63
2021/06/21 10:10:48;;;;;;;6.30;2.00;;;;;;;29.90;36.63;97244.22;8316818;28;20539;-65
2021/06/21 10:14:52;;;;;;;5.60;1.70;;;;;;;30.27;36.23;97239.16;8316488;28;20209;-65
2021/06/21 10:18:55;;;;;;;7.80;1.80;;;;;;;30.15;37.26;97241.69;8316599;28;20201;-65
2021/06/21 10:22:58;;;;;;;7.33;2.00;;;;;;;30.36;38.61;97251.28;8316693;28;20206;-65
2021/06/21 10:27:02;;;;;;;7.60;1.80;;;;;;;30.77;37.46;97247.41;8316722;28;20613;-65
2021/06/21 10:31:06;;;;;;;10.33;2.30;;;;;;;30.55;35.49;97245.03;8316297;28;20414;-65
2021/06/21 10:35:11;;;;;;;5.80;1.90;;;;;;;30.20;35.67;97245.38;8316529;28;20393;-65
2021/06/21 10:39:16;;;;;;;6.27;1.73;;;;;;;30.23;35.69;97253.97;8316213;28;20267;-65
2021/06/21 10:43:47;;;;;;;8.30;2.00;;;;;;;30.58;34.42;97246.47;8316228;28;20316;-65
2021/06/21 10:47:52;;;;;;;14.13;2.03;;;;;;;30.73;36.04;97244.34;8316124;28;20209;-65
2021/06/21 10:51:54;;;;;;;4.23;1.43;;;;;;;30.99;35.04;97246.03;8316333;28;20390;-66
2021/06/21 10:55:57;;;;;;;7.77;2.23;;;;;;;30.96;35.84;97238.47;8316197;28;20336;-66
2021/06/21 11:00:14;;;;;;;5.37;1.70;;;;;;;31.04;34.50;97237.38;8316038;28;20492;-66
2021/06/21 11:04:48;;;;;;;6.83;1.70;;;;;;;31.35;34.02;97225.81;8316253;28;20390;-65
2021/06/21 11:08:55;;;;;;;6.07;1.53;;;;;;;31.56;34.97;97232.66;8315878;28;20247;-66
2021/06/21 11:12:57;;;;;;;5.90;1.43;;;;;;;31.68;35.38;97234.63;8315795;28;20395;-65
2021/06/21 11:17:23;;;;;;;6.77;1.77;;;;;;;31.53;32.95;97233.13;8315552;28;20204;-65
2021/06/21 11:21:27;;;;;;;9.73;2.13;;;;;;;31.21;33.12;97235.00;8321990;28;20221;-65
2021/06/21 11:25:30;;;;;;;5.80;1.87;;;;;;;31.68;33.69;97230.09;8321788;28;20222;-66
2021/06/21 11:29:35;;;;;;;4.73;1.43;;;;;;;31.47;33.15;97227.81;8302790;28;20198;-66
2021/06/21 11:33:50;;;;;;;6.07;1.63;;;;;;;31.10;33.31;97225.81;8321501;28;20528;-66
2021/06/21 11:37:54;;;;;;;4.33;1.67;;;;;;;31.37;33.89;97233.63;8321461;28;20208;-66
2021/06/21 11:41:59;;;;;;;4.47;1.50;;;;;;;31.52;32.16;97218.09;8316417;28;20271;-66
2021/06/21 11:46:02;;;;;;;6.87;1.53;;;;;;;31.49;32.20;97225.75;8300931;28;20206;-66
2021/06/21 11:50:09;;;;;;;6.53;2.30;;;;;;;31.60;32.46;97230.38;8297788;28;20201;-63
2021/06/21 11:54:13;;;;;;;5.77;1.80;;;;;;;31.33;32.31;97224.41;8288105;28;20252;-64
2021/06/21 11:58:24;;;;;;;10.30;1.87;;;;;;;31.14;32.98;97234.22;8288492;28;20208;-64
2021/06/21 12:02:27;;;;;;;3.27;1.30;;;;;;;31.06;32.60;97224.63;8288353;28;20206;-65
2021/06/21 12:06:31;;;;;;;7.20;1.70;;;;;;;31.54;32.61;97220.56;8287939;28;20232;-64
2021/06/21 12:10:35;;;;;;;5.50;1.73;;;;;;;31.25;33.53;97228.19;8287879;28;20405;-64
2021/06/21 12:14:45;;;;;;;5.87;1.63;;;;;;;31.60;31.92;97224.22;8288543;28;20232;-63
2021/06/21 12:18:51;;;;;;;6.63;1.67;;;;;;;31.60;32.91;97227.69;8319553;28;20424;-63
2021/06/21 12:22:56;;;;;;;4.17;1.57;;;;;;;31.98;31.88;97221.34;8319815;28;20205;-63
2021/06/21 12:27:04;;;;;;;6.43;1.70;;;;;;;31.98;31.30;97223.19;8319782;28;20391;-63
2021/06/21 12:31:07;;;;;;;5.57;1.50;;;;;;;31.87;32.49;97225.59;8318930;28;20402;-63
2021/06/21 12:35:11;;;;;;;22.77;3.03;;;;;;;32.06;32.31;97215.75;8315579;28;20226;-64
2021/06/21 12:39:14;;;;;;;5.00;1.60;;;;;;;31.69;32.27;97228.25;8319096;28;20271;-64
2021/06/21 12:43:19;;;;;;;5.93;1.80;;;;;;;31.50;31.43;97220.16;8319136;28;20208;-65
2021/06/21 12:47:24;;;;;;;4.70;1.57;;;;;;;31.58;31.82;97227.09;8319167;28;20476;-64
2021/06/21 12:51:27;;;;;;;4.53;1.70;;;;;;;31.44;31.75;97214.88;8318838;28;20202;-64
2021/06/21 12:55:31;;;;;;;6.90;1.60;;;;;;;31.40;30.84;97217.16;8318611;28;20219;-64
2021/06/21 12:59:38;;;;;;;4.97;1.40;;;;;;;31.58;30.47;97212.91;8318337;28;20335;-64
2021/06/21 13:03:43;;;;;;;4.50;1.30;;;;;;;31.44;31.11;97212.19;8315276;28;20523;-64
2021/06/21 13:07:48;;;;;;;5.43;1.60;;;;;;;31.28;31.06;97217.06;8301428;28;20225;-64
2021/06/21 13:12:01;;;;;;;4.23;1.30;;;;;;;31.66;31.57;97221.47;8304906;28;20236;-64
2021/06/21 13:16:10;;;;;;;6.37;1.70;;;;;;;31.58;31.19;97210.22;8298809;28;20385;-64
2021/06/21 13:20:16;;;;;;;3.87;1.47;;;;;;;31.36;31.61;97207.94;8297806;28;20198;-63
2021/06/21 13:24:31;;;;;;;5.83;1.67;;;;;;;31.62;32.58;97200.72;8317539;28;20217;-65
2021/06/21 13:28:34;;;;;;;4.10;1.60;;;;;;;30.62;33.54;97204.13;8308830;28;20204;-64
2021/06/21 13:32:38;;;;;;;6.63;1.87;;;;;;;30.22;34.59;97205.09;8309462;28;20247;-64
2021/06/21 13:36:56;;;;;;;5.43;1.53;;;;;;;29.92;35.23;97197.59;8317667;28;20234;-64
2021/06/21 13:41:00;;;;;;;5.43;1.40;;;;;;;30.86;33.71;97195.31;8315345;28;20217;-63
2021/06/21 13:45:05;;;;;;;5.47;1.60;;;;;;;31.05;33.03;97190.88;8293817;28;20217;-63
2021/06/21 13:49:09;;;;;;;6.67;1.60;;;;;;;31.12;31.82;97186.31;8284762;28;20212;-63
2021/06/21 13:53:26;;;;;;;5.23;1.33;;;;;;;31.40;32.50;97185.06;8284568;28;20230;-63
2021/06/21 13:57:37;;;;;;;6.60;1.63;;;;;;;31.12;34.03;97182.81;8284538;28;20216;-64
2021/06/21 14:01:51;;;;;;;2.70;1.30;;;;;;;30.95;33.40;97185.22;8311196;28;20199;-63
2021/06/21 14:05:57;;;;;;;4.63;1.33;;;;;;;31.30;33.06;97192.75;8316940;28;20229;-64
2021/06/21 14:10:00;;;;;;;8.57;1.90;;;;;;;31.15;33.27;97179.72;8316909;28;20226;-64
2021/06/21 14:14:03;;;;;;;7.20;1.47;;;;;;;31.10;33.19;97179.56;8316992;28;20233;-63
2021/06/21 14:18:06;;;;;;;4.40;1.60;;;;;;;30.94;35.25;97172.91;8316302;28;20208;-63
2021/06/21 14:22:10;;;;;;;4.23;1.43;;;;;;;31.15;35.24;97177.06;8315793;28;20384;-63
2021/06/21 14:26:13;;;;;;;5.00;1.80;;;;;;;31.20;32.84;97171.84;8299242;28;20201;-64
2021/06/21 14:30:17;;;;;;;4.07;1.40;;;;;;;31.31;34.03;97171.13;8308955;28;20199;-63
2021/06/21 14:34:21;;;;;;;3.43;1.37;;;;;;;31.21;32.89;97168.16;8316012;28;20229;-63
2021/06/21 14:38:25;;;;;;;4.37;1.27;;;;;;;31.30;34.15;97172.19;8316482;28;20562;-64
2021/06/21 14:42:28;;;;;;;5.60;1.37;;;;;;;31.39;33.25;97170.03;8316250;28;20205;-63
2021/06/21 14:46:31;;;;;;;4.33;1.60;;;;;;;31.15;33.68;97182.41;8316157;28;20226;-63
2021/06/21 14:50:34;;;;;;;6.73;1.70;;;;;;;31.20;33.14;97176.38;8315910;28;20645;-62
2021/06/21 14:54:38;;;;;;;4.13;1.53;;;;;;;31.11;34.42;97171.31;8307218;28;20231;-63
2021/06/21 14:58:40;;;;;;;3.23;1.37;;;;;;;30.99;33.63;97167.69;8308508;28;20208;-63
2021/06/21 15:02:43;;;;;;;5.20;1.50;;;;;;;31.04;34.58;97156.38;8305301;28;20206;-63
2021/06/21 15:06:46;;;;;;;5.20;1.50;;;;;;;30.89;34.19;97160.16;8310402;28;20229;-63
2021/06/21 15:10:51;;;;;;;4.80;1.40;;;;;;;30.76;33.71;97154.91;8305405;28;20275;-63
2021/06/21 15:14:54;;;;;;;4.30;1.50;;;;;;;30.75;34.66;97148.75;8313626;28;20231;-62
2021/06/21 15:18:57;;;;;;;2.50;1.20;;;;;;;30.78;34.79;97142.13;8314096;28;20503;-62
2021/06/21 15:23:00;;;;;;;4.77;1.33;;;;;;;30.76;35.54;97144.22;8321594;28;20229;-65
2021/06/21 15:27:05;;;;;;;4.30;1.37;;;;;;;30.62;35.36;97137.34;8322621;28;20210;-65
2021/06/21 15:31:07;;;;;;;4.33;1.30;;;;;;;30.42;34.03;97135.59;8320867;28;20199;-65
2021/06/21 15:35:17;;;;;;;36.97;5.43;;;;;;;30.42;35.58;97132.09;8289154;28;20528;-65
2021/06/21 15:39:21;;;;;;;4.30;1.27;;;;;;;30.24;34.60;97124.78;8289098;28;20203;-65
2021/06/21 15:43:25;;;;;;;5.27;1.50;;;;;;;30.19;34.05;97126.22;8288831;28;20487;-65
2021/06/21 15:47:28;;;;;;;25.77;3.43;;;;;;;30.12;34.28;97136.16;8288586;28;20205;-65
2021/06/21 15:51:35;;;;;;;4.47;1.43;;;;;;;30.46;35.96;97128.78;8288670;28;20202;-65
2021/06/21 15:55:40;;;;;;;4.97;1.50;;;;;;;30.37;34.95;97119.41;8288539;28;20426;-66
2021/06/21 15:59:46;;;;;;;4.70;1.20;;;;;;;30.28;35.17;97120.66;8298359;28;20223;-64
2021/06/21 16:03:49;;;;;;;9.00;1.40;;;;;;;30.19;36.44;97120.88;8303309;28;20202;-65
2021/06/21 16:07:52;;;;;;;11.63;1.70;;;;;;;29.84;36.90;97111.63;8289688;28;20218;-65
2021/06/21 16:11:55;;;;;;;6.80;1.27;;;;;;;29.71;36.55;97102.59;8312669;28;20544;-65
2021/06/21 16:16:00;;;;;;;5.40;1.53;;;;;;;29.57;36.64;97107.19;8319897;28;20228;-65
2021/06/21 16:20:05;;;;;;;3.33;1.10;;;;;;;29.63;37.55;97114.34;8320106;28;20231;-65
2021/06/21 16:24:08;;;;;;;10.20;1.60;;;;;;;29.55;36.22;97116.41;8319955;28;20215;-65
2021/06/21 16:28:12;;;;;;;2.30;1.20;;;;;;;29.55;34.56;97124.41;8319776;28;20267;-64
2021/06/21 16:32:16;;;;;;;2.43;1.20;;;;;;;29.52;34.36;97124.84;8319912;28;20225;-64
2021/06/21 16:36:18;;;;;;;4.90;0.90;;;;;;;29.28;34.10;97123.66;8287124;28;20419;-65
2021/06/21 16:40:24;;;;;;;3.00;1.20;;;;;;;29.29;36.17;97123.44;8316114;28;20208;-65
2021/06/21 16:44:28;;;;;;;6.10;1.20;;;;;;;29.26;36.05;97123.03;8319128;28;20212;-66
2021/06/21 16:48:32;;;;;;;2.27;1.00;;;;;;;29.17;36.30;97125.13;8292825;28;20204;-66
2021/06/21 16:52:35;;;;;;;5.93;1.50;;;;;;;29.01;35.97;97123.66;8306548;28;20511;-66
2021/06/21 16:56:38;;;;;;;3.70;1.30;;;;;;;28.96;36.83;97123.44;8288179;28;20228;-66
2021/06/21 17:00:42;;;;;;;4.10;1.10;;;;;;;28.88;36.90;97121.78;8319019;28;20291;-65
2021/06/21 17:04:46;;;;;;;4.63;1.33;;;;;;;28.73;37.35;97129.16;8318506;28;20403;-65
2021/06/21 17:08:48;;;;;;;5.90;1.50;;;;;;;28.64;37.40;97133.88;8286465;28;20240;-66
2021/06/21 17:12:52;;;;;;;4.80;1.30;;;;;;;28.53;39.08;97118.50;8285976;28;20224;-65
2021/06/21 17:16:55;;;;;;;3.47;1.07;;;;;;;28.38;39.80;97130.09;8314782;28;20538;-64
2021/06/21 17:20:59;;;;;;;3.40;1.00;;;;;;;28.20;40.66;97135.22;8318016;28;20204;-65
2021/06/21 17:25:05;;;;;;;4.10;1.20;;;;;;;28.17;39.45;97141.72;8317723;28;20272;-65
2021/06/21 17:29:08;;;;;;;1.77;0.67;;;;;;;28.05;38.80;97143.34;8317154;28;20200;-64
2021/06/21 17:33:12;;;;;;;4.17;1.00;;;;;;;27.92;38.61;97152.06;8316702;28;20210;-65
2021/06/21 17:37:16;;;;;;;5.57;1.10;;;;;;;27.84;39.20;97157.53;8316297;28;20195;-65
2021/06/21 17:41:19;;;;;;;3.07;1.03;;;;;;;27.78;38.50;97168.94;8316452;28;20196;-64
2021/06/21 17:45:23;;;;;;;3.73;1.30;;;;;;;27.80;39.49;97173.06;8316871;28;20384;-64
2021/06/21 17:49:25;;;;;;;7.43;1.20;;;;;;;27.71;40.57;97178.75;8311693;28;20200;-64
2021/06/21 17:53:29;;;;;;;4.67;1.10;;;;;;;27.65;41.40;97173.19;8307608;28;20234;-64
2021/06/21 17:57:32;;;;;;;1.67;1.00;;;;;;;27.58;41.67;97171.50;8316968;28;20203;-64
2021/06/21 18:01:38;;;;;;;3.80;1.07;;;;;;;27.49;42.03;97174.34;8317272;28;20210;-64
2021/06/21 18:05:41;;;;;;;4.53;1.10;;;;;;;27.49;41.97;97160.19;8317109;28;20545;-64
2021/06/21 18:09:45;;;;;;;3.67;1.37;;;;;;;27.41;42.74;97163.84;8309683;28;20246;-64
2021/06/21 18:13:48;;;;;;;6.13;1.30;;;;;;;27.37;42.22;97151.13;8284374;28;20232;-64
2021/06/21 18:17:55;;;;;;;8.47;1.37;;;;;;;27.32;42.55;97145.56;8284078;28;20211;-64
2021/06/21 18:21:58;;;;;;;5.97;1.30;;;;;;;27.22;42.05;97146.69;8297233;28;20410;-63
2021/06/21 18:26:03;;;;;;;3.07;1.10;;;;;;;27.17;42.03;97153.59;8316629;28;20491;-64
2021/06/21 18:30:08;;;;;;;6.40;1.23;;;;;;;27.16;41.75;97150.13;8315781;28;20208;-64
2021/06/21 18:34:11;;;;;;;3.47;1.10;;;;;;;27.05;42.30;97153.31;8315928;28;20235;-65
2021/06/21 18:38:14;;;;;;;4.60;1.33;;;;;;;26.98;43.09;97150.63;8315909;28;20208;-63
2021/06/21 18:42:18;;;;;;;6.53;1.60;;;;;;;27.07;42.95;97151.28;8316081;28;20201;-64
2021/06/21 18:46:23;;;;;;;4.43;1.33;;;;;;;26.93;43.15;97155.69;8315851;28;20212;-64
2021/06/21 18:50:27;;;;;;;3.70;1.33;;;;;;;26.91;43.40;97145.25;8315800;28;20490;-64
2021/06/21 18:54:30;;;;;;;7.17;1.30;;;;;;;26.84;43.66;97148.84;8315297;28;20540;-63
2021/06/21 18:58:35;;;;;;;4.23;1.70;;;;;;;26.73;43.89;97150.19;8315684;28;20209;-63
2021/06/21 19:02:37;;;;;;;5.93;1.60;;;;;;;26.67;43.88;97148.28;8315411;28;20210;-63
2021/06/21 19:06:40;;;;;;;3.07;1.40;;;;;;;26.57;44.53;97145.91;8315400;28;20251;-63
2021/06/21 19:10:43;;;;;;;3.77;1.60;;;;;;;26.48;44.39;97144.41;8315280;28;20559;-63